createdAt,value
2022-08-22T00:02:39.659Z,81.46
2022-08-22T00:02:48.773Z,64.22
2022-08-22T00:02:55.723Z,80.52
2022-08-22T00:03:10.471Z,80.55
2022-08-22T00:06:53.487Z,81.47
2022-08-22T00:11:03.864Z,81.62
2022-08-22T00:15:31.606Z,81.96
2022-08-22T00:19:49.971Z,81.84
2022-08-22T00:24:09.540Z,82.17
2022-08-22T00:28:18.816Z,81.99
2022-08-22T00:32:30.384Z,82.11
2022-08-22T00:36:40.523Z,82.43
2022-08-22T00:41:01.120Z,82.84
2022-08-22T00:45:35.942Z,82.50
2022-08-22T00:49:54.463Z,82.64
2022-08-22T00:54:06.821Z,82.66
2022-08-22T00:58:41.374Z,82.73
2022-08-22T01:03:36.090Z,82.76
2022-08-22T01:08:06.208Z,82.96
2022-08-22T01:12:40.591Z,82.93
2022-08-22T01:17:15.719Z,83.27
2022-08-22T01:21:47.791Z,83.16
2022-08-22T01:26:34.370Z,83.04
2022-08-22T01:31:02.116Z,83.36
2022-08-22T01:35:25.150Z,83.46
2022-08-22T01:39:50.155Z,83.60
2022-08-22T01:44:08.932Z,83.65
2022-08-22T01:48:18.046Z,83.60
2022-08-22T01:52:38.650Z,83.42
2022-08-22T01:56:45.485Z,83.70
2022-08-22T02:01:08.308Z,83.69
2022-08-22T02:05:23.211Z,83.83
2022-08-22T02:09:37.312Z,84.05
2022-08-22T02:13:55.650Z,83.86
2022-08-22T02:18:16.659Z,83.86
2022-08-22T02:22:30.720Z,83.89
2022-08-22T02:26:45.409Z,83.80
2022-08-22T02:30:57.072Z,83.99
2022-08-22T02:35:06.611Z,83.94
2022-08-22T02:39:21.405Z,84.01
2022-08-22T02:43:30.965Z,83.98
2022-08-22T02:47:40.253Z,84.40
2022-08-22T02:51:50.692Z,84.46
2022-08-22T02:56:00.316Z,84.51
2022-08-22T03:00:32.828Z,84.37
2022-08-22T03:04:53.479Z,84.33
2022-08-22T03:09:08.782Z,84.68
2022-08-22T03:13:15.178Z,84.54
2022-08-22T03:17:25.990Z,84.45
2022-08-22T03:21:35.398Z,84.75
2022-08-22T03:25:42.951Z,84.79
2022-08-22T03:29:51.183Z,84.62
2022-08-22T03:34:23.443Z,84.65
2022-08-22T03:38:39.599Z,84.86
2022-08-22T03:43:17.926Z,84.87
2022-08-22T03:47:38.935Z,84.99
2022-08-22T03:52:02.351Z,85.03
2022-08-22T03:56:32.712Z,85.12
2022-08-22T04:01:07.825Z,84.94
2022-08-22T04:05:40.650Z,84.91
2022-08-22T04:10:11.937Z,85.33
2022-08-22T04:14:49.408Z,84.98
2022-08-22T04:19:16.446Z,85.15
2022-08-22T04:23:45.448Z,84.99
2022-08-22T04:27:56.222Z,84.96
2022-08-22T04:32:14.584Z,85.18
2022-08-22T04:36:24.783Z,85.12
2022-08-22T04:40:34.834Z,85.10
2022-08-22T04:44:44.625Z,85.27
2022-08-22T04:48:54.512Z,85.44
2022-08-22T04:53:09.817Z,85.28
2022-08-22T04:57:34.491Z,85.49
2022-08-22T05:01:46.760Z,85.44
2022-08-22T05:05:53.048Z,85.40
2022-08-22T05:10:10.550Z,85.25
2022-08-22T05:14:20.023Z,85.26
2022-08-22T05:18:29.638Z,84.96
2022-08-22T05:22:37.886Z,85.20
2022-08-22T05:26:45.535Z,85.10
2022-08-22T05:30:49.990Z,85.10
2022-08-22T05:34:59.764Z,84.88
2022-08-22T05:39:06.813Z,85.10
2022-08-22T05:43:12.631Z,84.89
2022-08-22T05:47:23.583Z,84.92
2022-08-22T05:51:34.074Z,85.12
2022-08-22T05:55:48.181Z,84.88
2022-08-22T05:59:55.471Z,84.92
2022-08-22T06:04:06.951Z,84.70
2022-08-22T06:08:21.272Z,84.59
2022-08-22T06:12:33.390Z,85.07
2022-08-22T06:16:47.388Z,84.84
2022-08-22T06:20:56.406Z,84.67
2022-08-22T06:25:10.299Z,85.12
2022-08-22T06:29:18.339Z,84.96
2022-08-22T06:33:26.885Z,85.20
2022-08-22T06:37:34.318Z,85.28
2022-08-22T06:41:43.134Z,85.31
2022-08-22T06:45:51.319Z,85.46
2022-08-22T06:49:59.249Z,85.75
2022-08-22T06:54:06.221Z,85.54
2022-08-22T06:58:19.558Z,85.58
2022-08-22T07:02:29.370Z,85.39
2022-08-22T07:06:37.172Z,85.53
2022-08-22T07:10:42.562Z,85.42
2022-08-22T07:14:50.586Z,85.95
2022-08-22T07:18:54.286Z,86.06
2022-08-22T07:23:00.590Z,86.36
2022-08-22T07:27:20.839Z,86.24
2022-08-22T07:31:34.507Z,86.64
2022-08-22T07:35:42.838Z,86.58
2022-08-22T07:40:04.680Z,86.48
2022-08-22T07:44:17.425Z,86.89
2022-08-22T07:48:29.319Z,86.88
2022-08-22T07:52:41.429Z,86.99
2022-08-22T07:56:52.229Z,87.10
2022-08-22T08:00:56.925Z,87.35
2022-08-22T08:05:01.859Z,87.52
2022-08-22T08:09:05.486Z,87.55
2022-08-22T08:13:12.717Z,87.58
2022-08-22T08:17:21.630Z,87.50
2022-08-22T08:21:32.095Z,87.71
2022-08-22T08:25:53.824Z,87.79
2022-08-22T08:30:00.715Z,87.99
2022-08-22T08:34:07.749Z,87.88
2022-08-22T08:38:16.896Z,87.85
2022-08-22T08:43:05.336Z,87.63
2022-08-22T08:47:29.998Z,87.91
2022-08-22T08:51:57.733Z,87.97
2022-08-22T08:56:08.247Z,88.17
2022-08-22T09:00:18.920Z,87.54
2022-08-22T09:05:01.278Z,87.75
2022-08-22T09:09:17.383Z,87.38
2022-08-22T09:13:49.186Z,87.34
2022-08-22T09:18:28.843Z,87.29
2022-08-22T09:23:10.105Z,87.10
2022-08-22T09:27:18.451Z,86.97
2022-08-22T09:31:48.188Z,87.24
2022-08-22T09:36:05.319Z,87.04
2022-08-22T09:40:18.872Z,87.42
2022-08-22T09:44:39.587Z,87.06
2022-08-22T09:49:01.768Z,87.23
2022-08-22T09:53:14.908Z,86.85
2022-08-22T09:57:33.552Z,87.09
2022-08-22T10:01:44.327Z,86.84
2022-08-22T10:05:56.247Z,86.96
2022-08-22T10:10:11.842Z,87.37
2022-08-22T10:14:22.242Z,87.44
2022-08-22T10:18:37.736Z,87.25
2022-08-22T10:23:04.794Z,87.05
2022-08-22T10:27:15.796Z,86.41
2022-08-22T10:31:31.968Z,86.19
2022-08-22T10:35:41.000Z,86.54
2022-08-22T10:40:02.598Z,85.34
2022-08-22T10:44:18.062Z,85.73
2022-08-22T10:48:46.595Z,85.64
2022-08-22T10:53:12.815Z,85.70
2022-08-22T10:57:41.913Z,85.33
2022-08-22T11:01:54.614Z,85.77
2022-08-22T11:06:06.723Z,85.70
2022-08-22T11:10:24.304Z,85.29
2022-08-22T11:15:09.056Z,84.86
2022-08-22T11:19:44.682Z,84.65
2022-08-22T11:24:00.659Z,84.50
2022-08-22T11:28:51.942Z,84.85
2022-08-22T11:33:32.501Z,84.65
2022-08-22T11:38:01.432Z,84.77
2022-08-22T11:42:13.540Z,84.31
2022-08-22T11:46:22.834Z,84.56
2022-08-22T11:50:35.483Z,84.39
2022-08-22T11:54:56.503Z,84.72
2022-08-22T11:59:07.877Z,84.83
2022-08-22T12:03:55.696Z,84.47
2022-08-22T12:08:11.347Z,84.14
2022-08-22T12:12:26.662Z,84.29
2022-08-22T12:16:39.288Z,84.03
2022-08-22T12:20:59.142Z,84.44
2022-08-22T12:25:17.259Z,84.43
2022-08-22T12:29:44.734Z,84.05
2022-08-22T12:34:04.959Z,83.99
2022-08-22T12:38:28.937Z,84.13
2022-08-22T12:42:50.195Z,84.09
2022-08-22T12:47:12.590Z,83.05
2022-08-22T12:51:26.735Z,82.82
2022-08-22T12:55:55.543Z,82.34
2022-08-22T13:00:09.752Z,82.66
2022-08-22T13:04:33.240Z,82.12
2022-08-22T13:08:41.041Z,81.86
2022-08-22T13:12:48.485Z,82.37
2022-08-22T13:16:59.776Z,81.71
2022-08-22T13:21:11.537Z,81.65
2022-08-22T13:25:25.865Z,80.81
2022-08-22T13:29:42.593Z,80.37
2022-08-22T13:33:48.070Z,80.36
2022-08-22T13:37:59.782Z,79.98
2022-08-22T13:42:07.614Z,79.34
2022-08-22T13:46:25.255Z,79.24
2022-08-22T13:50:53.099Z,79.34
2022-08-22T13:55:03.437Z,79.05
2022-08-22T13:59:40.410Z,78.97
2022-08-22T14:03:49.162Z,78.47
2022-08-22T14:08:04.831Z,78.38
2022-08-22T14:12:23.295Z,78.56
2022-08-22T14:16:29.753Z,78.21
2022-08-22T14:20:33.770Z,78.23
2022-08-22T14:24:45.642Z,78.08
2022-08-22T14:28:50.857Z,78.51
2022-08-22T14:32:58.782Z,78.66
2022-08-22T14:37:07.890Z,78.44
2022-08-22T14:41:22.300Z,78.55
2022-08-22T14:45:33.064Z,78.78
2022-08-22T14:49:50.881Z,78.74
2022-08-22T14:54:13.921Z,78.49
2022-08-22T14:58:27.624Z,78.46
2022-08-22T15:02:34.127Z,78.60
2022-08-22T15:06:39.263Z,78.96
2022-08-22T15:11:07.296Z,78.97
2022-08-22T15:15:30.383Z,78.68
2022-08-22T15:19:41.008Z,79.06
2022-08-22T15:23:46.731Z,79.17
2022-08-22T15:27:56.618Z,79.55
2022-08-22T15:32:03.572Z,79.69
2022-08-22T15:36:16.258Z,79.53
2022-08-22T15:40:32.541Z,79.76
2022-08-22T15:44:40.658Z,80.09
2022-08-22T15:48:58.608Z,80.10
2022-08-22T15:53:19.732Z,80.11
2022-08-22T15:57:26.606Z,80.00
2022-08-22T16:01:42.671Z,79.99
2022-08-22T16:05:55.826Z,79.87
2022-08-22T16:10:04.506Z,79.95
2022-08-22T16:14:22.819Z,79.54
2022-08-22T16:19:02.990Z,79.85
2022-08-22T16:23:09.935Z,79.84
2022-08-22T16:27:20.425Z,79.85
2022-08-22T16:31:31.369Z,80.02
2022-08-22T16:36:26.079Z,79.93
2022-08-22T16:40:29.323Z,80.32
2022-08-22T16:44:43.193Z,80.26
2022-08-22T16:48:46.800Z,80.15
2022-08-22T16:53:16.623Z,80.58
2022-08-22T16:57:23.617Z,80.51
2022-08-22T17:01:43.284Z,80.60
2022-08-22T17:06:00.991Z,81.06
2022-08-22T17:10:45.329Z,81.10
2022-08-22T17:14:57.822Z,81.26
2022-08-22T17:19:14.700Z,81.29
2022-08-22T17:23:29.442Z,81.69
2022-08-22T17:27:38.580Z,81.81
2022-08-22T17:31:51.247Z,82.10
2022-08-22T17:36:26.356Z,82.20
2022-08-22T17:40:42.556Z,82.30
2022-08-22T17:44:54.961Z,82.25
2022-08-22T17:49:13.965Z,82.33
2022-08-22T17:53:33.942Z,82.52
2022-08-22T17:57:41.372Z,82.63
2022-08-22T18:01:50.007Z,82.77
2022-08-22T18:06:09.271Z,82.72
2022-08-22T18:10:23.649Z,83.21
2022-08-22T18:14:34.245Z,83.09
2022-08-22T18:18:40.335Z,83.39
2022-08-22T18:22:49.894Z,83.23
2022-08-22T18:27:01.163Z,83.71
2022-08-22T18:31:08.671Z,83.65
2022-08-22T18:35:21.422Z,83.55
2022-08-22T18:39:30.895Z,83.72
2022-08-22T18:43:40.181Z,84.00
2022-08-22T18:47:43.422Z,84.12
2022-08-22T18:52:32.823Z,84.00
2022-08-22T18:56:49.819Z,83.81
2022-08-22T19:01:07.456Z,84.02
2022-08-22T19:05:28.333Z,84.35
2022-08-22T19:09:46.968Z,84.44
2022-08-22T19:14:25.527Z,84.67
2022-08-22T19:18:39.313Z,84.40
2022-08-22T19:22:43.554Z,84.75
2022-08-22T19:26:48.887Z,84.60
2022-08-22T19:30:53.654Z,84.78
2022-08-22T19:35:19.608Z,84.50
2022-08-22T19:39:50.772Z,84.65
2022-08-22T19:43:58.088Z,84.64
2022-08-22T19:48:13.151Z,84.74
2022-08-22T19:52:32.073Z,84.78
2022-08-22T19:56:51.848Z,84.51
2022-08-22T20:00:59.029Z,84.49
2022-08-22T20:05:14.512Z,84.56
2022-08-22T20:09:30.033Z,84.04
2022-08-22T20:13:35.315Z,84.20
2022-08-22T20:17:43.656Z,83.83
2022-08-22T20:22:00.141Z,84.04
2022-08-22T20:26:07.214Z,83.99
2022-08-22T20:30:15.543Z,83.82
2022-08-22T20:34:24.462Z,83.56
2022-08-22T20:38:33.400Z,83.73
2022-08-22T20:42:38.652Z,83.69
2022-08-22T20:46:55.047Z,83.60
2022-08-22T20:51:04.683Z,83.58
2022-08-22T20:55:14.189Z,83.29
2022-08-22T20:59:24.779Z,83.61
2022-08-22T21:03:38.010Z,83.37
2022-08-22T21:07:44.273Z,83.34
2022-08-22T21:11:50.993Z,83.58
2022-08-22T21:15:57.688Z,83.74
2022-08-22T21:20:17.028Z,83.35
2022-08-22T21:24:20.496Z,83.65
2022-08-22T21:28:32.596Z,83.59
2022-08-22T21:32:41.567Z,83.62
2022-08-22T21:36:44.990Z,83.63
2022-08-22T21:40:48.123Z,83.44
2022-08-22T21:44:57.659Z,83.63
2022-08-22T21:49:05.575Z,83.54
2022-08-22T21:53:14.087Z,83.92
2022-08-22T21:57:34.685Z,83.66
2022-08-22T22:01:38.054Z,83.53
2022-08-22T22:05:49.273Z,83.93
2022-08-22T22:09:54.660Z,83.76
2022-08-22T22:13:58.773Z,83.79
2022-08-22T22:18:02.285Z,83.83
2022-08-22T22:22:07.702Z,84.05
2022-08-22T22:26:12.227Z,83.97
2022-08-22T22:30:17.229Z,84.15
2022-08-22T22:34:20.672Z,84.31
2022-08-22T22:38:25.579Z,84.36
2022-08-22T22:42:28.887Z,84.46
2022-08-22T22:46:32.419Z,84.77
2022-08-22T22:50:40.505Z,84.90
2022-08-22T22:54:45.859Z,85.16
2022-08-22T22:58:58.950Z,84.95
2022-08-22T23:03:15.697Z,85.19
2022-08-22T23:07:19.639Z,85.37
2022-08-22T23:11:26.543Z,85.74
2022-08-22T23:15:29.785Z,85.67
2022-08-22T23:19:32.841Z,85.66
2022-08-22T23:23:35.923Z,85.78
2022-08-22T23:27:40.439Z,85.71
2022-08-22T23:31:49.194Z,85.79
2022-08-22T23:35:53.472Z,85.71
2022-08-22T23:40:01.337Z,85.87
2022-08-22T23:44:08.230Z,85.77
2022-08-22T23:48:16.490Z,86.02
2022-08-22T23:52:20.985Z,86.07
2022-08-22T23:56:28.550Z,85.87
